Rechercher aéroport 
image banner adimage banner adimage banner ad
image banner ad

5CL1 - Hart Ranch

Situé à Santa Margarita, United States

ICAO - 5CL1, IATA -

Données fournies par Airmate  

Information générale

Coordonnées: N35°24'17" W120°31'30"
Élévation : 1380 feet MSL.
Variation magnétique : 15° East
Voir autres Aéroports à California

Données opérationnelles

Special qualification required
Heure actuelle UTC:
Heure actuelle locale:
Météo à : KSBP - San Luis County Rgnl ( 21 km )
METAR: KSBP 262156Z 07003KT 10SM FEW029 SCT095 OVC110 19/16 A2997 RMK AO2 RAB01E44 SLP148 P0000 T01940161
TAF: KSBP 261740Z 2618/2718 14003KT P6SM SCT009 BKN120 FM262000 25006KT P6SM VCSH OVC100 FM270200 30006KT P6SM OVC120 FM270800 VRB03KT P6SM OVC007 FM271200 VRB03KT 1SM BR OVC003
Voir NOTAMs / SUP AIP / TFR affectant cet aéroport [VIEW]
Fréquences de communication: [VIEW]

Pistes:

Identifiant RWYQFULongueur (ft)Largeur (ft)SurfaceLDA (ft)
07180024GRAVEL
25180024GRAVEL

Coordonnées de l'aéroport

Adresse: Santa Margarita United States

Vue satellite de 5CL1